Time;durP1;ratioP1;P1;durP2;ratioP2;P2;SDS_P1;SDS_P2;PMS_P1;PMS_P2;Temp;Humidity;BMP_temperature;BMP_pressure;BME280_temperature;BME280_humidity;BME280_pressure;Samples;Min_cycle;Max_cycle;Signal;HPM_P1;HPM_P2
2023/05/20 00:00:00;;;;;;;1.20;1.20;;;20.00;63.60;;;;;;5082611;27;43859;-70
2023/05/20 00:02:28;;;;;;;1.20;1.20;;;20.00;62.70;;;;;;5082916;27;43770;-70
2023/05/20 00:04:56;;;;;;;1.10;1.10;;;20.00;62.50;;;;;;5083942;27;43453;-70
2023/05/20 00:07:24;;;;;;;1.30;1.30;;;19.90;62.40;;;;;;5083796;27;43520;-69
2023/05/20 00:09:53;;;;;;;1.00;1.00;;;19.90;62.50;;;;;;5079262;28;45821;-70
2023/05/20 00:12:20;;;;;;;1.40;1.40;;;19.80;63.20;;;;;;5082472;27;44625;-70
2023/05/20 00:14:50;;;;;;;1.00;1.00;;;19.80;63.50;;;;;;5084140;27;43482;-70
2023/05/20 00:17:19;;;;;;;1.10;1.10;;;19.80;63.20;;;;;;5082916;28;43821;-71
2023/05/20 00:19:47;;;;;;;1.20;1.20;;;19.70;63.00;;;;;;5084003;28;43669;-70
2023/05/20 00:22:15;;;;;;;1.20;1.20;;;19.70;63.00;;;;;;5083932;27;43418;-70
2023/05/20 00:24:43;;;;;;;1.10;1.10;;;19.70;63.50;;;;;;5084474;28;43502;-70
2023/05/20 00:27:11;;;;;;;1.17;1.17;;;19.70;63.90;;;;;;5081557;28;43912;-70
2023/05/20 00:29:39;;;;;;;1.03;1.03;;;19.70;63.60;;;;;;5082125;27;45455;-70
2023/05/20 00:32:08;;;;;;;1.27;1.27;;;19.70;63.40;;;;;;5088435;27;43464;-70
2023/05/20 00:34:36;;;;;;;1.10;1.10;;;19.70;63.30;;;;;;5087402;27;43415;-70
2023/05/20 00:37:04;;;;;;;1.00;1.00;;;19.60;63.30;;;;;;5086680;28;43479;-69
2023/05/20 00:39:32;;;;;;;1.10;1.10;;;19.60;63.90;;;;;;5085302;27;45019;-69
2023/05/20 00:42:02;;;;;;;1.00;1.00;;;19.70;64.00;;;;;;5086620;28;44990;-70
2023/05/20 00:44:30;;;;;;;0.90;0.90;;;19.80;63.90;;;;;;5087716;27;43483;-70
2023/05/20 00:46:58;;;;;;;1.00;1.00;;;19.80;63.70;;;;;;5087420;28;43934;-69
2023/05/20 00:49:27;;;;;;;1.10;1.10;;;19.90;63.50;;;;;;5087393;27;43871;-70
2023/05/20 00:51:55;;;;;;;1.10;1.10;;;19.90;63.30;;;;;;5088342;27;43537;-69
2023/05/20 00:54:23;;;;;;;1.30;1.30;;;19.80;63.70;;;;;;5087088;27;43472;-69
2023/05/20 00:56:51;;;;;;;1.10;1.10;;;19.80;63.70;;;;;;5081957;27;43450;-69
2023/05/20 00:59:19;;;;;;;1.20;1.20;;;19.80;63.40;;;;;;5086961;27;43839;-69
2023/05/20 01:01:47;;;;;;;1.00;1.00;;;19.80;63.10;;;;;;5086070;28;44985;-70
2023/05/20 01:04:16;;;;;;;1.00;1.00;;;19.80;63.90;;;;;;5087954;27;43841;-69
2023/05/20 01:06:46;;;;;;;1.10;1.10;;;19.70;63.90;;;;;;5087912;27;44032;-70
2023/05/20 01:09:14;;;;;;;1.20;1.20;;;19.70;64.00;;;;;;5087327;28;43870;-70
2023/05/20 01:11:46;;;;;;;1.20;1.20;;;19.70;63.70;;;;;;5085855;27;44827;-69
2023/05/20 01:14:14;;;;;;;1.07;1.07;;;19.70;63.50;;;;;;5085333;28;43976;-69
2023/05/20 01:16:42;;;;;;;1.00;1.00;;;19.60;63.40;;;;;;5087489;27;43479;-70
2023/05/20 01:19:15;;;;;;;1.00;1.00;;;19.60;63.90;;;;;;5083916;28;46036;-69
2023/05/20 01:21:44;;;;;;;1.00;1.00;;;19.60;64.20;;;;;;5082932;28;44392;-69
2023/05/20 01:24:14;;;;;;;1.00;1.00;;;19.70;64.30;;;;;;5084132;28;43969;-70
2023/05/20 01:26:42;;;;;;;1.00;1.00;;;19.80;63.90;;;;;;5080757;28;43885;-70
2023/05/20 01:29:12;;;;;;;1.10;1.10;;;20.00;63.80;;;;;;5082175;28;43613;-70
2023/05/20 01:31:40;;;;;;;0.90;0.90;;;20.00;63.50;;;;;;5087205;28;43466;-70
2023/05/20 01:34:08;;;;;;;1.10;1.10;;;20.00;63.30;;;;;;5083772;27;43446;-71
2023/05/20 01:36:36;;;;;;;1.20;1.20;;;19.90;63.00;;;;;;5087103;27;43509;-69
2023/05/20 01:39:05;;;;;;;1.03;1.03;;;19.90;63.00;;;;;;5084092;28;44899;-70
2023/05/20 01:41:35;;;;;;;1.27;1.27;;;19.80;63.30;;;;;;5085529;27;44737;-70
2023/05/20 01:44:03;;;;;;;1.10;1.10;;;19.80;64.00;;;;;;5084833;27;43375;-70
2023/05/20 01:46:33;;;;;;;1.00;1.00;;;19.70;63.90;;;;;;5083441;28;43860;-70
2023/05/20 01:49:01;;;;;;;1.10;1.10;;;19.70;63.60;;;;;;5087220;27;43586;-69
2023/05/20 01:51:32;;;;;;;1.13;1.13;;;19.70;63.50;;;;;;5085633;27;44040;-69
2023/05/20 01:54:00;;;;;;;1.17;1.17;;;19.70;63.70;;;;;;5082818;27;43471;-70
2023/05/20 01:56:28;;;;;;;1.10;1.10;;;19.60;64.30;;;;;;5086427;28;43537;-70
2023/05/20 01:58:57;;;;;;;1.00;1.00;;;19.60;64.20;;;;;;5085150;27;43590;-71
2023/05/20 02:01:25;;;;;;;1.00;1.00;;;19.60;63.80;;;;;;5085471;28;44769;-69
2023/05/20 02:03:53;;;;;;;1.10;1.10;;;19.60;63.80;;;;;;5084532;28;43472;-69
2023/05/20 02:06:23;;;;;;;1.17;1.17;;;19.60;63.80;;;;;;5086018;28;44012;-71
2023/05/20 02:08:51;;;;;;;1.07;1.07;;;19.60;64.20;;;;;;5086276;28;44467;-69
2023/05/20 02:11:19;;;;;;;1.10;1.10;;;19.60;64.50;;;;;;5086658;27;43394;-70
2023/05/20 02:13:47;;;;;;;1.10;1.10;;;19.70;64.50;;;;;;5086858;28;44094;-70
2023/05/20 02:16:16;;;;;;;0.97;0.97;;;19.80;64.10;;;;;;5083863;28;43463;-71
2023/05/20 02:18:44;;;;;;;1.10;1.10;;;19.90;63.90;;;;;;5084055;28;44670;-69
2023/05/20 02:21:17;;;;;;;0.90;0.90;;;20.00;63.80;;;;;;5084899;28;44864;-70
2023/05/20 02:23:45;;;;;;;1.20;1.20;;;19.90;63.50;;;;;;5082486;28;43466;-70
2023/05/20 02:26:13;;;;;;;1.07;1.07;;;19.90;63.30;;;;;;5086331;28;43481;-70
2023/05/20 02:28:45;;;;;;;1.00;1.00;;;19.80;64.00;;;;;;5085427;28;43937;-70
2023/05/20 02:31:13;;;;;;;1.20;1.20;;;19.80;63.60;;;;;;5083986;27;44080;-70
2023/05/20 02:33:43;;;;;;;1.07;1.07;;;19.70;64.30;;;;;;5083427;28;43493;-69
2023/05/20 02:36:11;;;;;;;1.33;1.33;;;19.70;64.90;;;;;;5087160;27;43624;-70
2023/05/20 02:38:39;;;;;;;1.20;1.20;;;19.70;63.90;;;;;;5082732;28;44134;-71
2023/05/20 02:41:07;;;;;;;1.00;1.00;;;19.70;63.80;;;;;;5080430;28;44222;-71
2023/05/20 02:43:36;;;;;;;0.83;0.83;;;19.60;63.80;;;;;;5082748;27;43545;-72
2023/05/20 02:46:04;;;;;;;1.10;1.10;;;19.60;64.50;;;;;;5101054;27;43551;-69
2023/05/20 02:48:33;;;;;;;1.37;1.23;;;19.60;64.10;;;;;;5082448;28;45779;-69
2023/05/20 02:51:02;;;;;;;1.23;1.23;;;19.60;63.90;;;;;;5083069;28;43884;-69
2023/05/20 02:53:30;;;;;;;1.10;1.10;;;19.60;63.80;;;;;;5081523;28;43566;-70
2023/05/20 02:55:58;;;;;;;2.67;1.30;;;19.60;63.70;;;;;;5084863;28;43488;-70
2023/05/20 02:58:28;;;;;;;1.70;1.30;;;19.60;63.80;;;;;;5085474;27;43942;-69
2023/05/20 03:00:57;;;;;;;2.07;1.83;;;19.60;64.00;;;;;;5079827;28;44853;-69
2023/05/20 03:03:26;;;;;;;3.03;1.63;;;19.60;61.50;;;;;;5083280;27;43939;-68
2023/05/20 03:05:54;;;;;;;1.60;1.50;;;19.70;60.90;;;;;;5089101;27;43736;-68
2023/05/20 03:08:25;;;;;;;4.00;1.40;;;19.80;61.20;;;;;;5086205;28;44063;-69
2023/05/20 03:10:53;;;;;;;1.30;1.20;;;19.90;61.60;;;;;;5086198;28;45123;-69
2023/05/20 03:13:21;;;;;;;1.40;1.30;;;19.90;61.90;;;;;;5087881;28;43529;-69
2023/05/20 03:15:49;;;;;;;1.40;1.30;;;19.90;62.00;;;;;;5088004;28;43410;-69
2023/05/20 03:18:17;;;;;;;1.73;1.63;;;19.80;62.00;;;;;;5087052;27;43892;-70
2023/05/20 03:20:46;;;;;;;1.20;1.20;;;19.80;62.30;;;;;;5083979;28;44009;-70
2023/05/20 03:23:14;;;;;;;1.20;1.20;;;19.70;62.70;;;;;;5085622;28;43947;-69
2023/05/20 03:25:43;;;;;;;1.57;1.47;;;19.70;63.00;;;;;;5081316;28;44019;-69
2023/05/20 03:28:11;;;;;;;1.07;1.07;;;19.70;62.80;;;;;;5085687;28;46025;-70
2023/05/20 03:30:39;;;;;;;1.47;1.37;;;19.70;62.90;;;;;;5077649;28;46065;-70
2023/05/20 03:33:07;;;;;;;1.30;1.30;;;19.60;62.80;;;;;;5076358;28;43803;-71
2023/05/20 03:35:35;;;;;;;1.30;1.30;;;19.60;63.20;;;;;;5086222;28;43471;-68
2023/05/20 03:38:04;;;;;;;1.23;1.20;;;19.60;63.80;;;;;;5084868;28;45832;-69
2023/05/20 03:40:34;;;;;;;1.37;1.27;;;19.60;63.70;;;;;;5085809;27;44583;-69
2023/05/20 03:43:05;;;;;;;1.20;1.20;;;19.60;63.30;;;;;;5085858;27;43417;-69
2023/05/20 03:45:33;;;;;;;1.20;1.20;;;19.60;63.30;;;;;;5085720;28;43624;-69
2023/05/20 03:48:05;;;;;;;1.20;1.20;;;19.60;63.40;;;;;;5081721;28;45129;-69
2023/05/20 03:50:35;;;;;;;1.00;1.00;;;19.60;64.00;;;;;;5084787;27;44764;-70
2023/05/20 03:53:03;;;;;;;1.10;1.10;;;19.60;64.10;;;;;;5086183;27;43508;-70
2023/05/20 03:55:38;;;;;;;1.20;1.20;;;19.70;64.10;;;;;;5086183;28;43605;-72
2023/05/20 03:58:08;;;;;;;1.07;1.07;;;19.90;63.80;;;;;;5085776;28;46060;-69
2023/05/20 04:00:36;;;;;;;1.10;1.10;;;20.00;63.40;;;;;;5085863;27;44733;-70
2023/05/20 04:03:04;;;;;;;1.17;1.17;;;20.00;63.30;;;;;;5085714;28;43457;-70
2023/05/20 04:05:32;;;;;;;1.30;1.30;;;20.00;63.00;;;;;;5086941;27;43544;-69
2023/05/20 04:08:03;;;;;;;1.20;1.20;;;20.00;62.90;;;;;;5089215;28;44029;-70
2023/05/20 04:10:31;;;;;;;1.37;1.37;;;19.90;62.90;;;;;;5090595;27;43347;-70
2023/05/20 04:13:00;;;;;;;1.20;1.20;;;19.80;63.40;;;;;;5089325;27;43847;-69
2023/05/20 04:15:29;;;;;;;1.10;1.10;;;19.80;63.90;;;;;;5089784;27;43509;-69
2023/05/20 04:18:00;;;;;;;1.20;1.20;;;19.80;63.70;;;;;;5082291;27;45650;-70
2023/05/20 04:20:28;;;;;;;1.10;1.10;;;19.70;63.40;;;;;;5090119;27;43424;-70
2023/05/20 04:22:57;;;;;;;1.20;1.20;;;19.80;63.60;;;;;;5088398;28;43421;-69
2023/05/20 04:25:26;;;;;;;1.10;1.10;;;19.70;63.70;;;;;;5090883;27;43428;-70
2023/05/20 04:27:56;;;;;;;1.20;1.20;;;19.70;64.30;;;;;;5088829;28;43834;-70
2023/05/20 04:30:24;;;;;;;1.17;1.17;;;19.70;64.10;;;;;;5095117;27;43904;-69
2023/05/20 04:32:54;;;;;;;1.10;1.10;;;19.60;63.80;;;;;;5090151;27;44021;-70
2023/05/20 04:35:24;;;;;;;1.20;1.20;;;19.60;63.80;;;;;;5088899;28;43559;-70
2023/05/20 04:37:54;;;;;;;1.00;1.00;;;19.60;63.90;;;;;;5088349;27;44058;-69
2023/05/20 04:40:23;;;;;;;1.20;1.20;;;19.60;64.40;;;;;;5088287;28;45088;-70
2023/05/20 04:42:52;;;;;;;1.20;1.20;;;19.70;64.70;;;;;;5088863;28;44126;-69
2023/05/20 04:45:22;;;;;;;1.30;1.30;;;19.70;64.40;;;;;;5088632;27;43592;-70
2023/05/20 04:47:52;;;;;;;1.27;1.17;;;19.90;64.10;;;;;;5087720;28;45813;-69
2023/05/20 04:50:21;;;;;;;1.10;1.10;;;20.00;63.80;;;;;;5087660;28;45041;-70
2023/05/20 04:52:50;;;;;;;1.13;1.13;;;20.00;63.70;;;;;;5083534;28;43390;-70
2023/05/20 04:55:20;;;;;;;1.00;1.00;;;20.00;63.40;;;;;;5074760;28;44117;-70
2023/05/20 04:57:48;;;;;;;1.03;1.03;;;19.90;63.30;;;;;;5087664;27;45959;-70
2023/05/20 05:00:17;;;;;;;1.20;1.20;;;19.90;63.50;;;;;;5090363;27;45165;-70
2023/05/20 05:02:45;;;;;;;1.30;1.30;;;19.80;63.90;;;;;;5088000;28;43498;-69
2023/05/20 05:05:14;;;;;;;1.00;1.00;;;19.80;64.60;;;;;;5088674;28;43415;-70
2023/05/20 05:07:43;;;;;;;1.10;1.10;;;19.80;64.10;;;;;;5088234;28;45997;-70
2023/05/20 05:10:12;;;;;;;1.20;1.20;;;19.70;63.80;;;;;;5087896;28;44376;-70
2023/05/20 05:12:40;;;;;;;1.20;1.20;;;19.70;63.90;;;;;;5088278;28;43932;-70
2023/05/20 05:15:09;;;;;;;1.13;1.13;;;19.60;64.00;;;;;;5088717;28;43644;-71
2023/05/20 05:17:37;;;;;;;1.40;1.40;;;19.60;64.50;;;;;;5087390;27;46001;-71
2023/05/20 05:20:08;;;;;;;1.30;1.23;;;19.70;64.30;;;;;;5088072;28;43474;-70
2023/05/20 05:22:38;;;;;;;1.20;1.20;;;19.70;64.50;;;;;;5084173;28;43393;-69
2023/05/20 05:25:09;;;;;;;1.20;1.20;;;19.60;64.00;;;;;;5086251;28;43484;-69
2023/05/20 05:27:37;;;;;;;1.40;1.40;;;19.60;64.10;;;;;;5088180;28;45958;-71
2023/05/20 05:30:07;;;;;;;1.30;1.30;;;19.60;64.70;;;;;;5088296;27;44492;-70
2023/05/20 05:32:36;;;;;;;1.20;1.20;;;19.70;64.80;;;;;;5087917;28;43518;-70
2023/05/20 05:35:05;;;;;;;1.10;1.10;;;19.80;64.50;;;;;;5089588;27;43418;-70
2023/05/20 05:37:35;;;;;;;1.10;1.10;;;19.90;64.10;;;;;;5087748;28;44792;-69
2023/05/20 05:40:05;;;;;;;1.00;1.00;;;20.00;63.90;;;;;;5088341;27;44996;-70
2023/05/20 05:42:35;;;;;;;1.30;1.30;;;20.00;63.80;;;;;;5087997;28;43420;-70
2023/05/20 05:45:05;;;;;;;1.10;1.10;;;20.00;63.50;;;;;;5088446;28;43450;-70
2023/05/20 05:47:33;;;;;;;1.10;1.10;;;19.90;64.10;;;;;;5087920;27;45417;-70
2023/05/20 05:50:01;;;;;;;1.20;1.20;;;19.90;63.60;;;;;;5087267;28;43531;-70
2023/05/20 05:52:32;;;;;;;1.30;1.30;;;19.80;64.10;;;;;;5087649;28;43408;-70
2023/05/20 05:55:02;;;;;;;1.10;1.10;;;19.80;64.40;;;;;;5090326;27;43426;-70
2023/05/20 05:57:31;;;;;;;1.30;1.30;;;19.80;64.10;;;;;;5087588;28;45750;-70
2023/05/20 06:00:00;;;;;;;1.20;1.20;;;19.80;64.00;;;;;;5088523;27;43474;-70
2023/05/20 06:02:34;;;;;;;1.20;1.20;;;19.70;64.00;;;;;;5086522;28;43539;-70
2023/05/20 06:05:03;;;;;;;1.30;1.30;;;19.70;64.30;;;;;;5087205;28;43411;-70
2023/05/20 06:07:31;;;;;;;1.23;1.23;;;19.70;64.80;;;;;;5088519;28;43777;-69
2023/05/20 06:09:59;;;;;;;1.30;1.30;;;19.70;64.70;;;;;;5087041;28;44959;-69
2023/05/20 06:12:28;;;;;;;1.10;1.10;;;19.80;64.50;;;;;;5086908;27;43432;-69
2023/05/20 06:14:56;;;;;;;1.10;1.10;;;19.90;64.40;;;;;;5086593;28;43354;-70
2023/05/20 06:17:25;;;;;;;1.10;1.10;;;19.90;64.10;;;;;;5086989;28;45992;-69
2023/05/20 06:19:53;;;;;;;1.10;1.10;;;19.80;64.30;;;;;;5086740;28;44495;-70
2023/05/20 06:22:22;;;;;;;1.20;1.20;;;19.80;64.50;;;;;;5088075;27;43456;-70
2023/05/20 06:24:50;;;;;;;1.40;1.40;;;19.80;64.40;;;;;;5088924;28;43407;-70
2023/05/20 06:27:18;;;;;;;1.20;1.20;;;19.80;64.20;;;;;;5084212;28;45978;-70
2023/05/20 06:29:46;;;;;;;1.30;1.30;;;19.80;64.10;;;;;;5079959;27;44360;-69
2023/05/20 06:32:14;;;;;;;1.27;1.27;;;19.70;64.30;;;;;;5087719;28;43373;-70
2023/05/20 06:34:44;;;;;;;1.10;1.10;;;19.70;64.80;;;;;;5087157;28;43451;-70
2023/05/20 06:37:13;;;;;;;1.20;1.20;;;19.70;64.70;;;;;;5084751;28;46058;-69
2023/05/20 06:39:41;;;;;;;1.30;1.30;;;19.70;64.40;;;;;;5085818;27;43534;-70
2023/05/20 06:42:12;;;;;;;1.20;1.20;;;19.70;64.40;;;;;;5087050;28;43377;-70
2023/05/20 06:44:47;;;;;;;1.17;1.17;;;19.60;64.30;;;;;;5086962;28;43619;-70
2023/05/20 06:47:36;;;;;;;1.40;1.40;;;19.60;64.80;;;;;;5084074;28;43775;-69
2023/05/20 06:50:06;;;;;;;1.20;1.20;;;19.60;65.00;;;;;;5086825;28;44889;-69
2023/05/20 06:52:35;;;;;;;1.30;1.30;;;19.80;64.90;;;;;;5086651;27;44062;-70
2023/05/20 06:55:04;;;;;;;1.10;1.10;;;19.80;64.60;;;;;;5087119;28;43454;-69
2023/05/20 06:57:34;;;;;;;1.17;1.17;;;19.80;64.40;;;;;;5086560;28;45631;-70
2023/05/20 07:00:02;;;;;;;1.10;1.10;;;19.80;64.30;;;;;;5086993;27;44690;-70
2023/05/20 07:02:33;;;;;;;1.20;1.20;;;19.80;64.60;;;;;;5086769;28;43386;-70
2023/05/20 07:05:01;;;;;;;1.10;1.10;;;19.80;64.60;;;;;;5092077;27;43623;-70
2023/05/20 07:07:31;;;;;;;1.23;1.23;;;19.80;65.10;;;;;;5085959;28;46069;-71
2023/05/20 07:09:59;;;;;;;1.23;1.23;;;19.80;64.30;;;;;;5077833;28;44881;-71
2023/05/20 07:12:27;;;;;;;1.30;1.30;;;19.70;64.30;;;;;;5086515;28;43409;-70
2023/05/20 07:14:55;;;;;;;1.23;1.23;;;19.70;64.90;;;;;;5088034;27;43616;-70
2023/05/20 07:17:23;;;;;;;1.20;1.20;;;19.70;65.00;;;;;;5086052;28;45795;-70
2023/05/20 07:19:51;;;;;;;1.20;1.20;;;19.70;64.70;;;;;;5085687;27;44638;-70
2023/05/20 07:22:20;;;;;;;1.03;1.03;;;19.70;64.50;;;;;;5086051;27;43397;-69
2023/05/20 07:25:00;;;;;;;1.30;1.30;;;19.60;64.50;;;;;;5088127;27;44000;-70
2023/05/20 07:27:29;;;;;;;1.30;1.20;;;19.60;64.80;;;;;;5085769;27;45720;-70
2023/05/20 07:30:00;;;;;;;1.40;1.40;;;19.60;65.20;;;;;;5085527;28;43453;-70
2023/05/20 07:32:29;;;;;;;1.20;1.20;;;19.70;65.20;;;;;;5085806;28;43456;-69
2023/05/20 07:34:57;;;;;;;1.20;1.20;;;19.80;64.90;;;;;;5085722;28;44129;-69
2023/05/20 07:37:25;;;;;;;1.20;1.20;;;19.90;64.40;;;;;;5080138;28;43591;-70
2023/05/20 07:39:53;;;;;;;1.13;1.13;;;20.00;64.30;;;;;;5080694;28;44070;-70
2023/05/20 07:42:23;;;;;;;1.27;1.27;;;20.00;64.20;;;;;;5090986;28;43357;-70
2023/05/20 07:44:56;;;;;;;1.23;1.23;;;20.00;64.00;;;;;;5084323;28;43451;-69
2023/05/20 07:47:24;;;;;;;1.10;1.10;;;19.90;63.90;;;;;;5088655;28;45651;-70
2023/05/20 07:49:53;;;;;;;1.20;1.20;;;19.80;64.00;;;;;;5089010;28;43439;-69
2023/05/20 07:52:21;;;;;;;1.20;1.20;;;19.80;64.70;;;;;;5089504;28;43397;-69
2023/05/20 07:54:49;;;;;;;1.30;1.30;;;19.80;64.90;;;;;;5089894;28;43420;-69
2023/05/20 07:57:17;;;;;;;1.10;1.10;;;19.70;64.60;;;;;;5089259;28;46095;-69
2023/05/20 07:59:47;;;;;;;1.07;1.07;;;19.70;64.50;;;;;;5087298;28;44738;-70
2023/05/20 08:02:16;;;;;;;1.30;1.30;;;19.70;64.60;;;;;;5087881;28;43596;-69
2023/05/20 08:04:45;;;;;;;1.17;1.17;;;19.60;64.90;;;;;;5089682;28;43564;-70
2023/05/20 08:07:13;;;;;;;1.40;1.40;;;19.70;65.20;;;;;;5087761;28;44149;-70
2023/05/20 08:09:51;;;;;;;1.23;1.23;;;19.60;64.90;;;;;;5088916;28;44762;-70
2023/05/20 08:12:20;;;;;;;1.20;1.20;;;19.60;64.80;;;;;;5089417;28;43401;-70
2023/05/20 08:14:49;;;;;;;1.23;1.23;;;19.60;64.70;;;;;;5090950;27;43430;-69
2023/05/20 08:17:18;;;;;;;1.40;1.40;;;19.60;64.90;;;;;;5088982;28;45771;-70
2023/05/20 08:19:46;;;;;;;1.20;1.20;;;19.60;65.40;;;;;;5090158;27;43356;-69
2023/05/20 08:22:14;;;;;;;1.20;1.20;;;19.70;65.30;;;;;;5089035;27;43378;-69
2023/05/20 08:24:42;;;;;;;1.23;1.23;;;19.80;65.10;;;;;;5089514;28;43459;-69
2023/05/20 08:27:10;;;;;;;1.40;1.40;;;19.80;64.90;;;;;;5089038;28;45020;-70
2023/05/20 08:29:38;;;;;;;1.20;1.20;;;19.90;64.80;;;;;;5090663;27;43404;-71
2023/05/20 08:32:08;;;;;;;1.30;1.30;;;19.90;64.50;;;;;;5089109;28;43422;-69
2023/05/20 08:34:36;;;;;;;1.30;1.30;;;19.80;64.90;;;;;;5089387;27;44305;-70
2023/05/20 08:37:04;;;;;;;1.30;1.30;;;19.80;65.70;;;;;;5088919;28;45671;-69
2023/05/20 08:39:33;;;;;;;1.20;1.20;;;19.80;64.70;;;;;;5088843;27;44504;-71
2023/05/20 08:42:01;;;;;;;1.30;1.30;;;19.80;64.60;;;;;;5087873;28;43390;-69
2023/05/20 08:44:29;;;;;;;1.10;1.10;;;19.80;64.60;;;;;;5088059;28;43466;-72
2023/05/20 08:46:57;;;;;;;1.20;1.20;;;19.70;64.80;;;;;;5088515;28;45791;-70
2023/05/20 08:49:27;;;;;;;1.20;1.20;;;19.60;64.80;;;;;;5088597;28;44780;-70
2023/05/20 08:51:56;;;;;;;1.00;1.00;;;19.60;65.00;;;;;;5089352;27;43379;-70
2023/05/20 08:54:25;;;;;;;1.30;1.30;;;19.60;65.10;;;;;;5090680;27;43409;-69
2023/05/20 08:56:55;;;;;;;1.23;1.23;;;19.60;65.10;;;;;;5089667;28;43575;-70
2023/05/20 08:59:26;;;;;;;1.33;1.33;;;19.60;65.20;;;;;;5088567;27;44380;-70
2023/05/20 09:01:54;;;;;;;1.10;1.10;;;19.60;65.20;;;;;;5089923;28;43369;-70
2023/05/20 09:04:22;;;;;;;1.40;1.40;;;19.50;65.10;;;;;;5089827;27;43915;-70
2023/05/20 09:06:51;;;;;;;1.40;1.40;;;19.60;65.50;;;;;;5089637;27;43861;-69
2023/05/20 09:09:21;;;;;;;1.40;1.40;;;19.70;65.60;;;;;;5083818;28;43352;-70
2023/05/20 09:11:49;;;;;;;1.20;1.20;;;19.80;65.20;;;;;;5084839;28;43891;-70
2023/05/20 09:14:17;;;;;;;1.27;1.27;;;20.00;64.60;;;;;;5078097;28;43914;-70
2023/05/20 09:16:45;;;;;;;1.20;1.20;;;20.20;63.80;;;;;;5084901;27;43846;-70
2023/05/20 09:19:13;;;;;;;1.57;1.37;;;20.50;63.40;;;;;;5085022;27;43488;-70
2023/05/20 09:21:41;;;;;;;2.53;1.23;;;20.70;62.70;;;;;;5081030;28;43405;-69
2023/05/20 09:24:11;;;;;;;1.50;1.50;;;20.80;62.10;;;;;;5078164;27;44144;-69
2023/05/20 09:26:39;;;;;;;1.33;1.33;;;21.00;61.70;;;;;;5086325;28;43622;-69
2023/05/20 09:29:07;;;;;;;1.10;1.10;;;21.10;61.40;;;;;;5083310;28;43481;-70
2023/05/20 09:31:37;;;;;;;1.30;1.30;;;21.10;61.00;;;;;;5082313;27;43536;-69
2023/05/20 09:34:06;;;;;;;1.20;1.20;;;21.20;61.10;;;;;;5081225;28;43461;-70
2023/05/20 09:36:35;;;;;;;1.33;1.33;;;21.10;61.30;;;;;;5068105;28;45992;-70
2023/05/20 09:39:04;;;;;;;1.30;1.30;;;20.90;61.70;;;;;;5088871;28;43435;-71
2023/05/20 09:41:38;;;;;;;1.40;1.30;;;20.70;62.40;;;;;;5085947;28;43467;-70
2023/05/20 09:44:06;;;;;;;1.53;1.53;;;20.60;62.80;;;;;;5082154;28;43382;-69
2023/05/20 09:46:37;;;;;;;1.40;1.40;;;20.50;63.10;;;;;;5087485;27;45645;-70
2023/05/20 09:49:06;;;;;;;1.40;1.40;;;20.40;63.30;;;;;;5088853;27;43434;-69
2023/05/20 09:51:37;;;;;;;1.30;1.30;;;20.30;63.20;;;;;;5081654;28;43953;-71
2023/05/20 09:54:07;;;;;;;1.20;1.20;;;20.20;64.20;;;;;;5083289;27;43534;-70
2023/05/20 09:56:38;;;;;;;1.30;1.30;;;20.10;64.40;;;;;;5084045;28;43732;-70
2023/05/20 09:59:06;;;;;;;1.27;1.27;;;20.10;64.50;;;;;;5077578;27;43391;-70
2023/05/20 10:01:35;;;;;;;1.40;1.40;;;20.00;64.20;;;;;;5073951;28;43370;-69
2023/05/20 10:04:05;;;;;;;1.33;1.33;;;20.00;64.20;;;;;;5069666;28;43959;-70
2023/05/20 10:07:05;;;;;;;1.53;1.40;;;19.90;64.80;;;;;;5072524;28;43602;-70
2023/05/20 10:09:42;;;;;;;1.27;1.27;;;19.90;65.30;;;;;;5053509;28;43451;-70
2023/05/20 10:12:28;;;;;;;1.40;1.40;;;20.00;65.00;;;;;;5075349;28;43458;-70
2023/05/20 10:15:07;;;;;;;1.40;1.40;;;20.10;64.60;;;;;;5076635;27;43457;-70
2023/05/20 10:17:40;;;;;;;1.40;1.40;;;20.20;64.10;;;;;;5074221;28;45592;-69
2023/05/20 10:20:10;;;;;;;1.83;1.70;;;20.30;64.00;;;;;;5076875;27;43371;-70
2023/05/20 10:22:39;;;;;;;1.40;1.40;;;20.20;63.70;;;;;;5079287;28;43406;-70
2023/05/20 10:25:12;;;;;;;1.40;1.37;;;20.20;63.80;;;;;;5073557;28;43982;-71
2023/05/20 10:27:45;;;;;;;1.57;1.57;;;20.00;63.80;;;;;;5078902;28;43854;-72
2023/05/20 10:30:16;;;;;;;1.60;1.60;;;20.00;65.00;;;;;;5073090;28;43462;-69
2023/05/20 10:32:49;;;;;;;1.60;1.60;;;20.00;65.10;;;;;;5075855;28;43427;-70
2023/05/20 10:35:22;;;;;;;1.40;1.40;;;19.90;64.80;;;;;;5074555;27;43623;-70
2023/05/20 10:37:50;;;;;;;1.70;1.70;;;19.90;64.60;;;;;;5072443;28;45999;-70
2023/05/20 10:40:19;;;;;;;1.23;1.23;;;19.80;64.70;;;;;;5080831;28;44727;-69
2023/05/20 10:42:51;;;;;;;1.53;1.53;;;19.80;65.60;;;;;;5073887;27;43555;-69
2023/05/20 10:45:26;;;;;;;1.73;1.73;;;19.90;65.60;;;;;;5078270;28;43652;-68
2023/05/20 10:47:56;;;;;;;1.60;1.60;;;20.00;65.30;;;;;;5080797;28;45933;-69
2023/05/20 10:50:28;;;;;;;1.47;1.47;;;20.00;65.10;;;;;;5081960;28;43429;-68
2023/05/20 10:53:03;;;;;;;1.70;1.70;;;20.00;64.90;;;;;;5086195;27;43380;-68
2023/05/20 10:55:37;;;;;;;1.30;1.30;;;20.00;65.10;;;;;;5082374;28;43441;-69
2023/05/20 10:58:06;;;;;;;1.50;1.50;;;20.00;65.30;;;;;;5085550;28;43747;-69
2023/05/20 11:00:34;;;;;;;1.73;1.73;;;20.00;65.20;;;;;;5086596;27;44101;-69
2023/05/20 11:03:03;;;;;;;1.53;1.53;;;20.00;64.90;;;;;;5084697;27;43465;-68
2023/05/20 11:05:32;;;;;;;1.60;1.60;;;19.90;64.90;;;;;;5084013;28;43555;-68
2023/05/20 11:08:01;;;;;;;1.30;1.30;;;19.90;65.30;;;;;;5079404;28;45846;-70
2023/05/20 11:10:35;;;;;;;1.60;1.60;;;19.90;65.80;;;;;;5083613;27;43563;-70
2023/05/20 11:13:03;;;;;;;1.50;1.50;;;19.90;65.40;;;;;;5086588;27;43452;-70
2023/05/20 11:15:33;;;;;;;1.53;1.53;;;19.80;65.20;;;;;;5072390;28;43912;-70
2023/05/20 11:18:03;;;;;;;1.60;1.60;;;19.80;65.20;;;;;;5086501;27;45979;-70
2023/05/20 11:20:33;;;;;;;1.67;1.60;;;19.80;65.40;;;;;;5087507;27;43434;-70
2023/05/20 11:23:02;;;;;;;1.80;1.70;;;19.80;65.90;;;;;;5083424;27;44048;-70
2023/05/20 11:25:35;;;;;;;1.50;1.50;;;19.80;65.30;;;;;;5079020;28;44230;-70
2023/05/20 11:28:03;;;;;;;1.70;1.70;;;19.80;65.20;;;;;;5087575;27;44042;-69
2023/05/20 11:30:32;;;;;;;1.57;1.57;;;19.70;64.80;;;;;;5079461;28;44848;-70
2023/05/20 11:33:01;;;;;;;1.73;1.73;;;19.70;65.20;;;;;;5085390;27;43413;-69
2023/05/20 11:35:30;;;;;;;1.67;1.67;;;19.70;66.10;;;;;;5087446;27;43512;-70
2023/05/20 11:38:02;;;;;;;1.80;1.80;;;19.80;66.00;;;;;;5084637;27;43587;-70
2023/05/20 11:40:31;;;;;;;1.70;1.70;;;19.90;65.70;;;;;;5084303;27;45011;-69
2023/05/20 11:43:06;;;;;;;1.70;1.70;;;20.00;65.10;;;;;;5079495;28;43341;-70
2023/05/20 11:45:41;;;;;;;1.90;1.90;;;20.10;64.60;;;;;;5080785;27;43684;-69
2023/05/20 11:48:09;;;;;;;1.57;1.57;;;20.10;64.90;;;;;;5080297;28;44031;-71
2023/05/20 11:50:40;;;;;;;1.80;1.80;;;20.00;64.50;;;;;;5081401;28;43501;-70
2023/05/20 11:53:09;;;;;;;1.63;1.63;;;20.00;64.50;;;;;;5083342;27;44543;-69
2023/05/20 11:55:45;;;;;;;1.80;1.80;;;19.90;64.80;;;;;;5083185;27;43925;-71
2023/05/20 11:58:15;;;;;;;1.90;1.90;;;19.80;65.10;;;;;;5085005;28;43593;-70
2023/05/20 12:00:45;;;;;;;1.90;1.83;;;19.80;64.90;;;;;;5087444;27;43392;-69
2023/05/20 12:03:21;;;;;;;2.10;2.10;;;19.80;65.10;;;;;;5084320;27;43446;-69
2023/05/20 12:05:50;;;;;;;1.83;1.83;;;19.80;65.00;;;;;;5087588;27;43444;-70
2023/05/20 12:08:21;;;;;;;3.73;2.27;;;19.70;65.30;;;;;;5083245;27;44120;-69
2023/05/20 12:10:49;;;;;;;2.27;2.10;;;19.70;65.80;;;;;;5080422;28;43798;-68
2023/05/20 12:13:18;;;;;;;2.17;2.07;;;19.80;65.70;;;;;;5084605;28;43444;-69
2023/05/20 12:15:50;;;;;;;1.87;1.87;;;19.90;65.20;;;;;;5081029;28;43444;-70
2023/05/20 12:18:18;;;;;;;2.07;1.97;;;19.90;65.40;;;;;;5086518;27;43601;-70
2023/05/20 12:20:46;;;;;;;1.93;1.93;;;19.90;65.00;;;;;;5083014;28;43448;-70
2023/05/20 12:23:14;;;;;;;2.10;2.10;;;19.90;65.60;;;;;;5081739;28;43389;-70
2023/05/20 12:25:44;;;;;;;1.70;1.70;;;19.90;65.70;;;;;;5085389;27;43458;-70
2023/05/20 12:28:12;;;;;;;2.00;2.00;;;19.90;65.40;;;;;;5083888;28;45685;-70
2023/05/20 12:30:40;;;;;;;1.80;1.80;;;19.80;65.10;;;;;;5088886;27;44932;-69
2023/05/20 12:33:10;;;;;;;2.27;2.27;;;19.80;65.20;;;;;;5089929;27;43396;-69
2023/05/20 12:35:39;;;;;;;2.00;2.00;;;19.80;65.60;;;;;;5078920;27;43347;-71
2023/05/20 12:38:07;;;;;;;1.90;1.80;;;19.80;65.60;;;;;;5088228;28;43611;-70
2023/05/20 12:40:35;;;;;;;2.03;1.97;;;19.80;65.50;;;;;;5088733;28;43945;-70
2023/05/20 12:43:04;;;;;;;1.80;1.80;;;19.80;65.40;;;;;;5088089;27;43931;-70
2023/05/20 12:45:32;;;;;;;2.13;2.00;;;19.70;65.40;;;;;;5089780;27;43775;-70
2023/05/20 12:48:00;;;;;;;2.00;2.00;;;19.70;66.00;;;;;;5079235;27;43683;-70
2023/05/20 12:50:29;;;;;;;2.00;1.90;;;19.70;66.10;;;;;;5085792;28;44068;-70
2023/05/20 12:52:57;;;;;;;2.30;2.10;;;19.70;65.60;;;;;;5080069;27;43498;-70
2023/05/20 12:55:25;;;;;;;1.93;1.93;;;19.70;65.60;;;;;;5086845;27;43332;-69
2023/05/20 12:57:54;;;;;;;1.90;1.90;;;19.70;65.60;;;;;;5090059;27;43956;-70